Hauptseite
METAR-TAF:

METAR-TAF

Flughäfen :

Fourchambault

Nevers, Frankreich

Breite: 47-00N, Länge: 003-06E, Höhe: 180 m

Beobachtung

Neuester Wetterbericht von vor 29 Minuten, um 13:00 UTC
Wind 12 kt aus Südost, variierte zwischen Ost und Süd/Südost
Temperatur 27°C
Luftfeuchtigkeit 23%
Luftdruck 1010 hPa
Sichtweite 10 km oder mehr
keine Wolken unter 1500 m und keine Kumulonimbus oder Gewitterwolken

METAR: LFQG 151300Z AUTO 13012KT 090V160 CAVOK 27/04 Q1010

Zeit: 15:29 (13:29 UTC)


TAF: fehlend

Wetterbeobachtungen und Prognosen von mehr als 4000 Flughäfen (METAR und TAF Bericht).

Die verfügbaren Stationen werden durch gelbe und rote Markierungen auf der Karte dargestellt.

Führen Sie die Maus auf sie, um den Namen der Station zu sehen.

Darauf klicken, um die Beobachtung von Wetterbeobachtungen und Prognosen zu sehen.

Um die Karte zu ändern : klicken Sie auf den grünen Tasten mit einem schwarzen Kreuz Zum Vergrößern, auf den grünen Button mit einem Gedankenstrich zu verkleinern, oder auf die grünen Pfeile für benachbarte Karten.


METAR-TAF: